MiSS Stacie — WDF5915 — position and weather

sailwx.info

Track history (hours):
 
Tides and Currents Weather Stations Pressure Air Temp Water Temp Dewpoint Dewpoint Depression Visibility Wind Speed Wind Dir Waves Ship Positions

MiSS Stacie

Owner: Crosby Marine Transportation LLC, Golden Meadow, LA. More information available from US FCC via Universal Licensing System and Coast Guard Vessel Documentation Center.

Last reported at 2017-May-20 18:06 UTC. Time now 2017-Jun-29 12:36 UTC.
Position N 29°34' W 090°31'.
Warning: this ship's position is 39 days out of date.

Length 20 m; draft 2 m.

Type: Tug. MMSI: 367468640.

Date/timePositionNaut miles runAvg speedWind from/ knotsBaromVisibWave heightAir tempDewpointWater temp
2017-May-20 18:06N 29°34' W 090°31'1 7.6
2017-May-20 18:00N 29°34' W 090°32'3 6.7
2017-May-20 17:30N 29°35' W 090°36'0 0.6
2017-May-20 17:00N 29°35' W 090°36'0 0.0
2017-May-20 16:30N 29°35' W 090°36'0 0.0
2017-May-20 16:00N 29°35' W 090°36'1 2.7
2017-May-20 15:30N 29°34' W 090°35'  
2017-May-17 02:49N 29°34' W 090°31'3 8.2
2017-May-17 02:30N 29°34' W 090°34'3 6.7
2017-May-17 02:00N 29°35' W 090°38'4 7.9
2017-May-17 01:30N 29°37' W 090°42'3 6.2
2017-May-17 01:01N 29°34' W 090°43'3 7.0
2017-May-17 00:30N 29°32' W 090°47'5 8.8
2017-May-16 23:57N 29°32' W 090°52'0 0.0
2017-May-15 04:56N 29°32' W 090°53'3 6.0
2017-May-15 04:28N 29°32' W 090°50'3 5.9
2017-May-15 04:01N 29°32' W 090°47'3 5.3
2017-May-15 03:31N 29°34' W 090°44'2 3.9
2017-May-15 03:01N 29°35' W 090°43'2 3.9
2017-May-15 02:31N 29°36' W 090°41'3 6.4
2017-May-15 02:00N 29°35' W 090°37'1 0.5
2017-May-14 22:51N 29°35' W 090°36'1 2.5
2017-May-14 22:31N 29°35' W 090°37'4 7.0
2017-May-14 22:00N 29°36' W 090°40'0 0.1
2017-May-14 21:11N 29°36' W 090°40'0 0.0
2017-May-14 20:52N 29°36' W 090°40'0 0.0
2017-May-14 19:43N 29°36' W 090°40'0 0.0
2017-May-14 19:19N 29°36' W 090°40'0 0.0
2017-May-14 18:59N 29°36' W 090°40'0 0.0
2017-May-14 18:23N 29°36' W 090°40'0 0.0
2017-May-14 17:52N 29°36' W 090°40'0 0.0
2017-May-14 16:41N 29°36' W 090°40'0 0.1
2017-May-14 16:29N 29°36' W 090°40'0 0.0
2017-May-14 15:59N 29°36' W 090°40'0 0.0
2017-May-14 15:22N 29°36' W 090°40'0 0.0
2017-May-14 14:58N 29°36' W 090°40'0 0.0
2017-May-14 14:29N 29°36' W 090°40'0 0.0
2017-May-14 13:29N 29°36' W 090°40'0 0.0
2017-May-14 12:58N 29°36' W 090°40'0 0.0
2017-May-14 12:29N 29°36' W 090°40'0 0.0
2017-May-14 11:59N 29°36' W 090°40'0 0.0
2017-May-14 11:28N 29°36' W 090°40'0 0.0
2017-May-14 10:58N 29°36' W 090°40'0 0.0
2017-May-14 10:28N 29°36' W 090°40'0 0.0
2017-May-14 09:58N 29°36' W 090°40'0 0.0
2017-May-14 09:28N 29°36' W 090°40'0 0.0
2017-May-14 08:59N 29°36' W 090°40'0 0.0
2017-May-14 08:28N 29°36' W 090°40'0 0.0
2017-May-14 07:59N 29°36' W 090°40'0 0.0
2017-May-14 07:29N 29°36' W 090°40'0 0.0
2017-May-14 06:53N 29°36' W 090°40'0 0.0
2017-May-14 06:23N 29°36' W 090°40'0 0.0
2017-May-14 05:59N 29°36' W 090°40'0 0.0
2017-May-14 05:23N 29°36' W 090°40'0 0.0
2017-May-14 04:58N 29°36' W 090°40'0 0.0
2017-May-14 04:28N 29°36' W 090°40'0 0.0
2017-May-14 03:59N 29°36' W 090°40'0 0.0
2017-May-14 03:30N 29°36' W 090°40'0 0.0
2017-May-14 03:00N 29°36' W 090°40'0 0.0
2017-May-14 02:30N 29°36' W 090°40'0 0.4
2017-May-14 02:00N 29°36' W 090°40'2 4.9
2017-May-14 01:30N 29°35' W 090°43'3 6.8
2017-May-14 01:00N 29°32' W 090°42'4 7.8
2017-May-14 00:30N 29°28' W 090°43'1 0.3
2017-May-13 20:27N 29°29' W 090°43'4 8.6
2017-May-13 20:00N 29°33' W 090°42'3 6.0
2017-May-13 19:31N 29°36' W 090°43'2 4.0
2017-May-13 19:00N 29°36' W 090°40'3 6.6
2017-May-13 18:30N 29°35' W 090°37'3 6.5
2017-May-13 18:00N 29°34' W 090°33'  
Track history (hours):
 
Tides and Currents Weather Stations Pressure Air Temp Water Temp Dewpoint Dewpoint Depression Visibility Wind Speed Wind Dir Waves Ship Positions

MiSS Stacie

Owner: Crosby Marine Transportation LLC, Golden Meadow, LA. More information available from US FCC via Universal Licensing System and Coast Guard Vessel Documentation Center.

Last reported at 2017-May-20 18:06 UTC. Time now 2017-Jun-29 12:36 UTC.
Position N 29°34' W 090°31'.
Warning: this ship's position is 39 days out of date.

Length 20 m; draft 2 m.

Type: Tug. MMSI: 367468640.

Date/timePositionNaut miles runAvg speedWind from/ knotsBaromVisibWave heightAir tempDewpointWater temp
2017-May-20 18:06N 29°34' W 090°31'1 7.6
2017-May-20 18:00N 29°34' W 090°32'3 6.7
2017-May-20 17:30N 29°35' W 090°36'0 0.6
2017-May-20 17:00N 29°35' W 090°36'0 0.0
2017-May-20 16:30N 29°35' W 090°36'0 0.0
2017-May-20 16:00N 29°35' W 090°36'1 2.7
2017-May-20 15:30N 29°34' W 090°35'  
2017-May-17 02:49N 29°34' W 090°31'3 8.2
2017-May-17 02:30N 29°34' W 090°34'3 6.7
2017-May-17 02:00N 29°35' W 090°38'4 7.9
2017-May-17 01:30N 29°37' W 090°42'3 6.2
2017-May-17 01:01N 29°34' W 090°43'3 7.0
2017-May-17 00:30N 29°32' W 090°47'5 8.8
2017-May-16 23:57N 29°32' W 090°52'0 0.0
2017-May-15 04:56N 29°32' W 090°53'3 6.0
2017-May-15 04:28N 29°32' W 090°50'3 5.9
2017-May-15 04:01N 29°32' W 090°47'3 5.3
2017-May-15 03:31N 29°34' W 090°44'2 3.9
2017-May-15 03:01N 29°35' W 090°43'2 3.9
2017-May-15 02:31N 29°36' W 090°41'3 6.4
2017-May-15 02:00N 29°35' W 090°37'1 0.5
2017-May-14 22:51N 29°35' W 090°36'1 2.5
2017-May-14 22:31N 29°35' W 090°37'4 7.0
2017-May-14 22:00N 29°36' W 090°40'0 0.1
2017-May-14 21:11N 29°36' W 090°40'0 0.0
2017-May-14 20:52N 29°36' W 090°40'0 0.0
2017-May-14 19:43N 29°36' W 090°40'0 0.0
2017-May-14 19:19N 29°36' W 090°40'0 0.0
2017-May-14 18:59N 29°36' W 090°40'0 0.0
2017-May-14 18:23N 29°36' W 090°40'0 0.0
2017-May-14 17:52N 29°36' W 090°40'0 0.0
2017-May-14 16:41N 29°36' W 090°40'0 0.1
2017-May-14 16:29N 29°36' W 090°40'0 0.0
2017-May-14 15:59N 29°36' W 090°40'0 0.0
2017-May-14 15:22N 29°36' W 090°40'0 0.0
2017-May-14 14:58N 29°36' W 090°40'0 0.0
2017-May-14 14:29N 29°36' W 090°40'0 0.0
2017-May-14 13:29N 29°36' W 090°40'0 0.0
2017-May-14 12:58N 29°36' W 090°40'0 0.0
2017-May-14 12:29N 29°36' W 090°40'0 0.0
2017-May-14 11:59N 29°36' W 090°40'0 0.0
2017-May-14 11:28N 29°36' W 090°40'0 0.0
2017-May-14 10:58N 29°36' W 090°40'0 0.0
2017-May-14 10:28N 29°36' W 090°40'0 0.0
2017-May-14 09:58N 29°36' W 090°40'0 0.0
2017-May-14 09:28N 29°36' W 090°40'0 0.0
2017-May-14 08:59N 29°36' W 090°40'0 0.0
2017-May-14 08:28N 29°36' W 090°40'0 0.0
2017-May-14 07:59N 29°36' W 090°40'0 0.0
2017-May-14 07:29N 29°36' W 090°40'0 0.0
2017-May-14 06:53N 29°36' W 090°40'0 0.0
2017-May-14 06:23N 29°36' W 090°40'0 0.0
2017-May-14 05:59N 29°36' W 090°40'0 0.0
2017-May-14 05:23N 29°36' W 090°40'0 0.0
2017-May-14 04:58N 29°36' W 090°40'0 0.0
2017-May-14 04:28N 29°36' W 090°40'0 0.0
2017-May-14 03:59N 29°36' W 090°40'0 0.0
2017-May-14 03:30N 29°36' W 090°40'0 0.0
2017-May-14 03:00N 29°36' W 090°40'0 0.0
2017-May-14 02:30N 29°36' W 090°40'0 0.4
2017-May-14 02:00N 29°36' W 090°40'2 4.9
2017-May-14 01:30N 29°35' W 090°43'3 6.8
2017-May-14 01:00N 29°32' W 090°42'4 7.8
2017-May-14 00:30N 29°28' W 090°43'1 0.3
2017-May-13 20:27N 29°29' W 090°43'4 8.6
2017-May-13 20:00N 29°33' W 090°42'3 6.0
2017-May-13 19:31N 29°36' W 090°43'2 4.0
2017-May-13 19:00N 29°36' W 090°40'3 6.6
2017-May-13 18:30N 29°35' W 090°37'3 6.5
2017-May-13 18:00N 29°34' W 090°33'  

Dump ship's entire track history